createdAt,value
2023-05-04T06:26:17.334Z,33.75
2023-05-04T06:27:17.286Z,39.36
2023-05-04T06:28:17.469Z,16.87
2023-05-04T06:29:30.302Z,50.61
2023-05-04T06:30:30.290Z,39.36
2023-05-04T06:31:30.358Z,759.36
2023-05-04T06:32:30.304Z,703.11
2023-05-04T06:33:30.258Z,596.25
2023-05-04T06:34:30.258Z,630.00
2023-05-04T06:35:30.268Z,163.11
2023-05-04T06:36:30.253Z,511.86
2023-05-04T06:37:30.216Z,101.25
2023-05-04T06:38:30.204Z,450.00
2023-05-04T06:39:30.194Z,438.75
2023-05-04T06:40:30.214Z,540.00
2023-05-04T06:41:30.195Z,545.61
2023-05-04T06:42:30.160Z,579.36
2023-05-04T06:43:30.155Z,511.86
2023-05-04T06:44:30.140Z,590.61
2023-05-04T06:45:30.148Z,562.50
2023-05-04T06:46:30.116Z,691.86
2023-05-04T06:47:30.126Z,1046.25
2023-05-04T06:48:30.112Z,956.25
2023-05-04T06:49:30.087Z,1057.50
2023-05-04T06:50:30.292Z,1215.00
2023-05-04T06:51:30.073Z,1541.25
2023-05-04T06:52:30.060Z,1580.61
2023-05-04T06:53:30.058Z,1569.36
2023-05-04T06:54:30.030Z,2790.00
2023-05-04T06:55:30.023Z,3273.75
2023-05-04T06:56:30.015Z,3043.12
2023-05-04T06:57:30.131Z,3290.62
2023-05-04T06:58:29.990Z,3127.50
2023-05-04T06:59:29.985Z,3256.87
2023-05-04T07:00:29.966Z,3234.37
2023-05-04T07:01:29.982Z,3285.00
2023-05-04T07:02:29.990Z,3178.12
2023-05-04T07:03:29.954Z,2975.62
2023-05-04T07:04:29.930Z,3301.87
2023-05-04T07:05:29.931Z,3341.25
2023-05-04T07:06:29.904Z,3549.37
2023-05-04T07:07:29.896Z,3453.75
2023-05-04T07:08:29.882Z,3645.00
2023-05-04T07:09:29.874Z,3600.00
2023-05-04T07:10:29.867Z,3493.12
2023-05-04T07:11:29.852Z,3459.37
2023-05-04T07:12:29.904Z,3009.37
2023-05-04T07:13:29.852Z,3003.75
2023-05-04T07:14:29.819Z,3172.50
2023-05-04T07:15:30.024Z,3341.25
2023-05-04T07:16:29.819Z,3622.50
2023-05-04T07:17:29.849Z,3836.25
2023-05-04T07:18:29.782Z,3853.12
2023-05-04T07:19:29.767Z,3650.62
2023-05-04T07:20:29.753Z,3870.00
2023-05-04T07:21:29.796Z,3785.62
2023-05-04T07:22:29.749Z,3487.50
2023-05-04T07:23:29.725Z,3453.75
2023-05-04T07:24:29.717Z,3183.75
2023-05-04T07:25:29.703Z,2925.00
2023-05-04T07:26:29.694Z,2846.25
2023-05-04T07:27:29.681Z,2829.37
2023-05-04T07:28:29.668Z,2953.12
2023-05-04T07:29:29.677Z,3251.25
2023-05-04T07:30:29.664Z,3543.75
2023-05-04T07:31:30.780Z,3785.62
2023-05-04T07:32:29.632Z,3841.87
2023-05-04T07:33:29.623Z,4134.37
2023-05-04T07:34:41.905Z,4173.75
2023-05-04T07:35:29.600Z,4410.00
2023-05-04T07:36:29.585Z,4618.12
2023-05-04T07:37:29.577Z,4668.75
2023-05-04T07:38:29.566Z,4584.37
2023-05-04T07:39:29.556Z,4561.87
2023-05-04T07:40:29.542Z,4308.75
2023-05-04T07:41:29.534Z,4179.37
2023-05-04T07:42:29.521Z,3982.50
2023-05-04T07:43:29.520Z,3903.75
2023-05-04T07:44:29.582Z,3909.37
2023-05-04T07:45:29.617Z,3937.50
2023-05-04T07:46:29.521Z,4010.62
2023-05-04T07:47:29.492Z,4066.87
2023-05-04T07:48:29.459Z,4123.12
2023-05-04T07:49:29.454Z,4190.62
2023-05-04T07:50:29.440Z,4224.37
2023-05-04T07:51:29.433Z,4381.87
2023-05-04T07:52:29.419Z,4365.00
2023-05-04T07:53:29.417Z,4291.87
2023-05-04T07:54:29.404Z,4241.25
2023-05-04T07:55:29.388Z,4190.62
2023-05-04T07:56:29.378Z,3808.12
2023-05-04T07:57:29.501Z,3735.00
2023-05-04T07:58:29.358Z,3594.37
2023-05-04T07:59:29.350Z,3256.87
2023-05-04T08:00:29.342Z,3251.25
2023-05-04T08:01:29.556Z,3279.37
2023-05-04T08:02:29.403Z,3442.50
2023-05-04T08:03:29.309Z,3560.62
2023-05-04T08:04:29.295Z,3684.37
2023-05-04T08:05:29.290Z,4218.75
2023-05-04T08:06:29.277Z,4725.00
2023-05-04T08:07:29.268Z,4820.62
2023-05-04T08:08:29.257Z,4606.87
2023-05-04T08:09:29.253Z,4426.87
2023-05-04T08:10:29.238Z,4213.12
2023-05-04T08:11:29.228Z,3690.00
2023-05-04T08:12:29.254Z,3470.62
2023-05-04T08:13:29.352Z,3234.37
2023-05-04T08:14:29.202Z,3155.62
2023-05-04T08:15:29.187Z,3189.37
2023-05-04T08:16:29.196Z,3110.62
2023-05-04T08:17:29.215Z,3290.62
2023-05-04T08:18:29.162Z,3526.87
2023-05-04T08:19:29.146Z,3622.50
2023-05-04T08:20:29.143Z,3622.50
2023-05-04T08:21:29.124Z,3847.50
2023-05-04T08:22:29.116Z,3892.50
2023-05-04T08:23:29.110Z,3594.37
2023-05-04T08:24:29.103Z,3318.75
2023-05-04T08:25:29.087Z,3425.62
2023-05-04T08:26:29.076Z,3538.12
2023-05-04T08:27:29.073Z,3611.25
2023-05-04T08:28:29.057Z,3436.87
2023-05-04T08:29:29.059Z,3549.37
2023-05-04T08:30:29.037Z,3555.00
2023-05-04T08:31:29.077Z,3695.62
2023-05-04T08:32:30.497Z,3498.75
2023-05-04T08:33:29.027Z,3763.12
2023-05-04T08:34:28.996Z,3853.12
2023-05-04T08:35:28.995Z,3853.12
2023-05-04T08:36:28.982Z,3971.25
2023-05-04T08:37:28.973Z,4156.87
2023-05-04T08:38:28.961Z,4224.37
2023-05-04T08:39:28.962Z,4646.25
2023-05-04T08:40:28.952Z,4629.37
2023-05-04T08:41:28.934Z,4820.62
2023-05-04T08:42:28.925Z,4241.25
2023-05-04T08:43:28.912Z,4320.00
2023-05-04T08:44:28.904Z,4134.37
2023-05-04T08:45:28.933Z,3605.62
2023-05-04T08:46:28.882Z,3403.12
2023-05-04T08:47:29.225Z,3088.12
2023-05-04T08:48:28.872Z,3352.50
2023-05-04T08:49:28.916Z,3223.12
2023-05-04T08:50:28.847Z,3335.62
2023-05-04T08:51:28.835Z,3313.12
2023-05-04T08:52:28.828Z,3549.37
2023-05-04T08:53:28.815Z,3751.87
2023-05-04T08:54:28.823Z,3690.00
2023-05-04T08:55:28.795Z,3971.25
2023-05-04T08:56:28.782Z,3892.50
2023-05-04T08:57:28.776Z,3926.25
2023-05-04T08:58:28.776Z,4134.37
2023-05-04T08:59:28.756Z,4376.25
2023-05-04T09:00:28.805Z,4415.62
2023-05-04T09:01:28.827Z,4359.37
2023-05-04T09:02:28.774Z,4314.37
2023-05-04T09:03:28.808Z,4241.25
2023-05-04T09:04:29.746Z,4415.62
2023-05-04T09:05:28.721Z,4381.87
2023-05-04T09:06:28.692Z,4336.87
2023-05-04T09:07:28.677Z,4466.25
2023-05-04T09:08:28.663Z,4303.12
2023-05-04T09:09:28.726Z,4021.87
2023-05-04T09:10:29.695Z,3352.50
2023-05-04T09:11:28.638Z,3656.25
2023-05-04T09:12:28.655Z,3886.87
2023-05-04T09:13:28.621Z,3926.25
2023-05-04T09:14:28.601Z,4106.25
2023-05-04T09:15:28.597Z,4449.37
2023-05-04T09:16:28.617Z,4471.87
2023-05-04T09:17:28.601Z,4578.75
2023-05-04T09:18:28.619Z,4460.62
2023-05-04T09:19:28.568Z,4466.25
2023-05-04T09:20:28.554Z,4140.00
2023-05-04T09:21:28.627Z,3819.37
2023-05-04T09:22:28.890Z,4055.62
2023-05-04T09:23:28.597Z,4111.87
2023-05-04T09:24:28.534Z,4404.37
2023-05-04T09:25:28.515Z,4336.87
2023-05-04T09:26:28.493Z,4044.37
2023-05-04T09:27:28.481Z,4269.37
2023-05-04T09:28:28.895Z,4348.12
2023-05-04T09:29:28.464Z,4218.75
2023-05-04T09:30:28.453Z,3853.12
2023-05-04T09:31:28.540Z,4258.12
2023-05-04T09:32:28.462Z,4275.00
2023-05-04T09:33:28.430Z,4246.87
2023-05-04T09:34:28.617Z,4162.50
2023-05-04T09:35:33.162Z,4466.25
2023-05-04T09:36:28.398Z,4027.50
2023-05-04T09:37:28.488Z,3802.50
2023-05-04T09:38:28.382Z,3774.37
2023-05-04T09:39:28.371Z,3566.25
2023-05-04T09:40:28.355Z,3875.62
2023-05-04T09:41:28.348Z,4033.12
2023-05-04T09:42:28.346Z,4173.75
2023-05-04T09:43:28.328Z,4269.37
2023-05-04T09:44:29.582Z,4410.00
2023-05-04T09:45:28.309Z,4297.50
2023-05-04T09:46:28.360Z,4179.37
2023-05-04T09:47:28.333Z,3909.37
2023-05-04T09:48:28.281Z,4100.62
2023-05-04T09:49:28.276Z,4156.87
2023-05-04T09:50:28.261Z,3909.37
2023-05-04T09:51:28.250Z,3937.50
2023-05-04T09:52:28.241Z,3960.00
2023-05-04T09:53:28.268Z,3751.87
2023-05-04T09:54:28.226Z,3577.50
2023-05-04T09:55:28.219Z,3673.12
2023-05-04T09:56:28.207Z,3504.37
2023-05-04T09:57:28.192Z,3515.62
2023-05-04T09:58:28.184Z,3352.50
2023-05-04T09:59:28.173Z,3363.75
2023-05-04T10:00:28.169Z,3465.00
2023-05-04T10:01:28.154Z,3549.37
2023-05-04T10:02:28.238Z,3588.75
2023-05-04T10:03:28.140Z,3600.00
2023-05-04T10:04:28.132Z,3763.12
2023-05-04T10:05:28.156Z,3690.00
2023-05-04T10:06:28.103Z,3931.87
2023-05-04T10:07:28.094Z,4010.62
2023-05-04T10:08:28.104Z,4263.75
2023-05-04T10:09:28.106Z,4207.50
2023-05-04T10:10:28.269Z,4241.25
2023-05-04T10:11:28.054Z,4106.25
2023-05-04T10:12:28.096Z,4224.37
2023-05-04T10:13:28.053Z,3926.25
2023-05-04T10:14:28.027Z,3847.50
2023-05-04T10:15:28.018Z,3937.50
2023-05-04T10:16:28.021Z,4140.00
2023-05-04T10:17:28.029Z,4185.00
2023-05-04T10:18:27.991Z,4331.25
2023-05-04T10:19:27.975Z,4387.50
2023-05-04T10:20:27.969Z,4365.00
2023-05-04T10:21:27.960Z,4224.37
2023-05-04T10:22:27.956Z,4100.62
2023-05-04T10:23:27.938Z,4106.25
2023-05-04T10:24:27.933Z,3993.75
2023-05-04T10:25:28.032Z,4033.12
2023-05-04T10:26:27.912Z,4016.25
2023-05-04T10:27:27.904Z,3976.87
2023-05-04T10:28:27.918Z,4128.75
2023-05-04T10:29:27.880Z,4151.25
2023-05-04T10:30:27.872Z,4140.00
2023-05-04T10:31:27.904Z,4117.50
2023-05-04T10:32:27.890Z,3943.12
2023-05-04T10:33:28.042Z,3746.25
2023-05-04T10:34:27.844Z,3830.62
2023-05-04T10:35:27.878Z,3870.00
2023-05-04T10:36:27.812Z,3954.37
2023-05-04T10:37:27.803Z,3808.12
2023-05-04T10:38:27.807Z,3757.50
2023-05-04T10:39:27.817Z,3740.62
2023-05-04T10:40:27.979Z,3650.62
2023-05-04T10:41:27.788Z,3791.25
2023-05-04T10:42:27.779Z,3633.75
2023-05-04T10:43:27.745Z,3678.75
2023-05-04T10:44:27.733Z,3667.50
2023-05-04T10:45:27.731Z,3746.25
2023-05-04T10:46:27.715Z,3706.87
2023-05-04T10:47:27.730Z,3594.37
2023-05-04T10:48:27.695Z,3645.00
2023-05-04T10:49:27.691Z,3465.00
2023-05-04T10:50:27.684Z,3273.75
2023-05-04T10:51:35.709Z,3493.12
2023-05-04T10:52:28.685Z,3380.62
2023-05-04T10:53:27.644Z,3459.37
2023-05-04T10:54:27.638Z,3380.62
2023-05-04T10:55:27.623Z,3352.50
2023-05-04T10:56:27.614Z,3532.50
2023-05-04T10:57:27.628Z,3431.25
2023-05-04T10:58:27.806Z,3195.00
2023-05-04T10:59:27.588Z,3256.87
2023-05-04T11:00:27.577Z,3256.87
2023-05-04T11:01:27.569Z,3206.25
2023-05-04T11:02:27.690Z,3082.50
2023-05-04T11:03:27.745Z,3256.87
2023-05-04T11:04:27.535Z,3324.37
2023-05-04T11:05:27.529Z,3346.87
2023-05-04T11:06:27.541Z,3330.00
2023-05-04T11:07:27.515Z,3448.12
2023-05-04T11:08:27.518Z,3577.50
2023-05-04T11:09:27.485Z,3476.25
2023-05-04T11:10:27.481Z,3453.75
2023-05-04T11:11:27.465Z,3420.00
2023-05-04T11:12:27.457Z,3358.12
2023-05-04T11:13:27.480Z,3217.50
2023-05-04T11:14:27.439Z,3206.25
2023-05-04T11:15:27.428Z,3341.25
2023-05-04T11:16:27.504Z,3290.62
2023-05-04T11:17:28.741Z,3301.87
2023-05-04T11:18:27.400Z,2761.87
2023-05-04T11:19:27.394Z,2986.87
2023-05-04T11:20:27.387Z,3290.62
2023-05-04T11:21:27.376Z,2936.25
2023-05-04T11:22:27.361Z,3200.62
2023-05-04T11:23:27.352Z,3178.12
2023-05-04T11:24:27.342Z,3200.62
2023-05-04T11:25:27.354Z,3324.37
2023-05-04T11:26:27.323Z,3206.25
2023-05-04T11:27:27.311Z,3301.87
2023-05-04T11:28:27.306Z,3279.37
2023-05-04T11:29:27.323Z,3301.87
2023-05-04T11:30:27.289Z,3240.00
2023-05-04T11:31:27.344Z,3189.37
2023-05-04T11:32:27.273Z,3189.37
2023-05-04T11:33:27.256Z,3144.37
2023-05-04T11:34:27.249Z,3133.12
2023-05-04T11:35:27.241Z,3166.87
2023-05-04T11:36:27.233Z,3138.75
2023-05-04T11:37:27.215Z,3144.37
2023-05-04T11:38:27.207Z,3099.37
2023-05-04T11:39:27.191Z,3054.37
2023-05-04T11:40:27.183Z,3088.12
2023-05-04T11:41:27.173Z,3054.37
2023-05-04T11:42:27.161Z,2941.87
2023-05-04T11:43:27.152Z,2896.87
2023-05-04T11:44:27.144Z,3009.37
2023-05-04T11:45:27.159Z,2981.25
2023-05-04T11:46:27.202Z,2863.12
2023-05-04T11:47:27.125Z,2835.00
2023-05-04T11:48:27.104Z,2857.50
2023-05-04T11:49:27.092Z,2823.75
2023-05-04T11:50:27.087Z,2767.50
2023-05-04T11:51:27.075Z,2632.50
2023-05-04T11:52:27.067Z,2649.37
2023-05-04T11:53:27.057Z,2593.12
2023-05-04T11:54:27.046Z,2559.37
2023-05-04T11:55:27.034Z,2632.50
2023-05-04T11:56:27.027Z,2671.87
2023-05-04T11:57:27.019Z,2615.62
2023-05-04T11:58:27.019Z,2407.50
2023-05-04T11:59:27.007Z,2261.25
2023-05-04T12:00:26.993Z,2272.50
2023-05-04T12:01:27.005Z,2295.00
2023-05-04T12:02:27.004Z,2401.87
2023-05-04T12:03:32.691Z,2289.37
2023-05-04T12:04:28.051Z,2311.87
2023-05-04T12:05:26.944Z,2368.12
2023-05-04T12:06:26.927Z,2368.12
2023-05-04T12:07:26.923Z,2373.75
2023-05-04T12:08:26.906Z,2418.75
2023-05-04T12:09:26.917Z,2413.12
2023-05-04T12:10:26.886Z,2266.87
2023-05-04T12:11:26.890Z,2272.50
2023-05-04T12:12:27.069Z,2289.37
2023-05-04T12:13:26.856Z,2317.50
2023-05-04T12:14:26.846Z,2328.75
2023-05-04T12:15:26.836Z,2255.62
2023-05-04T12:16:26.888Z,2188.12
2023-05-04T12:17:26.849Z,2283.75
2023-05-04T12:18:26.808Z,2233.12
2023-05-04T12:19:26.809Z,1895.61
2023-05-04T12:20:26.997Z,1929.36
2023-05-04T12:21:26.774Z,2058.75
2023-05-04T12:22:26.766Z,2115.00
2023-05-04T12:23:26.764Z,2143.12
2023-05-04T12:24:26.755Z,2131.87
2023-05-04T12:25:26.734Z,2154.37
2023-05-04T12:26:26.726Z,2137.50
2023-05-04T12:27:26.714Z,2120.62
2023-05-04T12:28:26.723Z,2154.37
2023-05-04T12:29:26.715Z,2131.87
2023-05-04T12:30:26.685Z,2064.37
2023-05-04T12:31:26.692Z,1996.86
2023-05-04T12:32:26.708Z,2053.12
2023-05-04T12:33:26.680Z,2013.75
2023-05-04T12:34:26.648Z,1918.11
2023-05-04T12:35:26.638Z,1963.11
2023-05-04T12:36:26.632Z,1895.61
2023-05-04T12:37:26.615Z,1935.00
2023-05-04T12:38:26.638Z,1906.86
2023-05-04T12:39:26.609Z,1839.36
2023-05-04T12:40:28.773Z,1726.86
2023-05-04T12:41:26.573Z,1535.61
2023-05-04T12:42:26.569Z,1625.61
2023-05-04T12:43:26.575Z,1642.50
2023-05-04T12:44:26.546Z,1681.86
2023-05-04T12:45:26.532Z,1687.50
2023-05-04T12:46:26.542Z,1648.11
2023-05-04T12:47:26.549Z,1665.00
2023-05-04T12:48:26.510Z,1642.50
2023-05-04T12:49:26.537Z,1614.36
2023-05-04T12:50:26.484Z,1591.86
2023-05-04T12:51:26.473Z,1586.25
2023-05-04T12:52:26.462Z,1597.50
2023-05-04T12:53:26.450Z,1580.61
2023-05-04T12:54:26.466Z,1552.50
2023-05-04T12:55:26.430Z,1518.75
2023-05-04T12:56:26.424Z,1473.75
2023-05-04T12:57:26.409Z,1468.11
2023-05-04T12:58:26.412Z,1445.61
2023-05-04T12:59:26.401Z,1411.86
2023-05-04T13:00:26.376Z,1333.11
2023-05-04T13:01:26.392Z,1254.36
2023-05-04T13:02:26.400Z,1198.11
2023-05-04T13:03:26.477Z,1147.50
2023-05-04T13:04:26.340Z,1108.11
2023-05-04T13:05:26.374Z,1080.00
2023-05-04T13:06:26.321Z,1051.86
2023-05-04T13:07:26.311Z,1040.61
2023-05-04T13:08:26.313Z,1018.11
2023-05-04T13:09:26.284Z,1029.36
2023-05-04T13:10:26.285Z,1035.00
2023-05-04T13:11:26.268Z,1029.36
2023-05-04T13:12:26.269Z,1018.11
2023-05-04T13:13:26.390Z,990.00
2023-05-04T13:14:26.240Z,945.00
2023-05-04T13:15:26.232Z,916.86
2023-05-04T13:16:26.306Z,866.25
2023-05-04T13:17:26.235Z,821.25
2023-05-04T13:18:26.211Z,855.00
2023-05-04T13:19:26.390Z,855.00
2023-05-04T13:20:26.188Z,843.75
2023-05-04T13:21:26.196Z,826.86
2023-05-04T13:22:26.162Z,815.61
2023-05-04T13:23:26.191Z,810.00
2023-05-04T13:24:26.145Z,804.36
2023-05-04T13:25:26.133Z,810.00
2023-05-04T13:26:26.121Z,798.75
2023-05-04T13:27:26.113Z,776.25
2023-05-04T13:28:26.108Z,776.25
2023-05-04T13:29:26.088Z,765.00
2023-05-04T13:30:26.090Z,753.75
2023-05-04T13:31:26.100Z,748.11
2023-05-04T13:32:26.074Z,736.86
2023-05-04T13:33:29.981Z,736.86
2023-05-04T13:34:26.036Z,725.61
2023-05-04T13:35:26.025Z,720.00
2023-05-04T13:36:26.020Z,691.86
2023-05-04T13:37:26.030Z,703.11
2023-05-04T13:38:25.999Z,703.11
2023-05-04T13:39:25.986Z,669.36
2023-05-04T13:40:25.976Z,703.11
2023-05-04T13:41:25.965Z,708.75
2023-05-04T13:42:25.958Z,708.75
2023-05-04T13:43:25.945Z,703.11
2023-05-04T13:44:25.935Z,708.75
2023-05-04T13:45:25.931Z,703.11
2023-05-04T13:46:25.964Z,697.50
2023-05-04T13:47:26.002Z,691.86
2023-05-04T13:48:26.243Z,691.86
2023-05-04T13:49:25.884Z,703.11
2023-05-04T13:50:25.874Z,697.50
2023-05-04T13:51:25.862Z,697.50
2023-05-04T13:52:25.860Z,697.50
2023-05-04T13:53:25.902Z,697.50
2023-05-04T13:54:25.833Z,697.50
2023-05-04T13:55:25.821Z,691.86
2023-05-04T13:56:25.818Z,691.86
2023-05-04T13:57:25.802Z,691.86
2023-05-04T13:58:25.793Z,686.25
2023-05-04T13:59:25.782Z,691.86
2023-05-04T14:00:25.798Z,686.25
2023-05-04T14:01:25.842Z,697.50
2023-05-04T14:02:26.024Z,691.86
2023-05-04T14:03:25.800Z,675.00
2023-05-04T14:04:25.775Z,680.61
2023-05-04T14:05:25.790Z,697.50
2023-05-04T14:06:25.787Z,635.61
2023-05-04T14:07:59.619Z,691.86
2023-05-04T14:08:59.634Z,691.86
2023-05-04T14:09:59.601Z,680.61
2023-05-04T14:10:59.598Z,691.86
2023-05-04T14:11:59.579Z,691.86
2023-05-04T14:12:59.592Z,708.75
2023-05-04T14:13:59.559Z,686.25
2023-05-04T14:14:59.548Z,714.36
2023-05-04T14:15:59.559Z,708.75
2023-05-04T14:16:59.765Z,691.86
2023-05-04T14:17:59.537Z,669.36
2023-05-04T14:18:59.506Z,686.25
2023-05-04T14:19:59.498Z,686.25
2023-05-04T14:20:59.481Z,675.00
2023-05-04T14:21:59.476Z,686.25
2023-05-04T14:22:59.474Z,630.00
2023-05-04T14:23:59.462Z,585.00
2023-05-04T14:24:59.529Z,601.86
2023-05-04T14:25:59.436Z,742.50
2023-05-04T14:26:59.429Z,804.36
2023-05-04T14:27:59.414Z,810.00
2023-05-04T14:28:59.406Z,826.86
2023-05-04T14:29:59.396Z,810.00
2023-05-04T14:30:59.384Z,776.25
2023-05-04T14:31:59.431Z,720.00
2023-05-04T14:32:59.418Z,731.25
2023-05-04T14:33:59.353Z,720.00
2023-05-04T14:34:59.343Z,686.25
2023-05-04T14:35:59.339Z,691.86
2023-05-04T14:36:59.540Z,720.00
2023-05-04T14:37:59.312Z,720.00
2023-05-04T14:38:59.304Z,691.86
2023-05-04T14:39:59.294Z,714.36
2023-05-04T14:40:59.303Z,759.36
2023-05-04T14:41:59.281Z,759.36
2023-05-04T14:42:59.260Z,765.00
2023-05-04T14:43:59.253Z,731.25
2023-05-04T14:44:59.236Z,703.11
2023-05-04T14:45:59.363Z,742.50
2023-05-04T14:46:59.216Z,770.61
2023-05-04T14:47:59.335Z,714.36
2023-05-04T14:48:59.202Z,776.25
2023-05-04T14:49:59.194Z,776.25
2023-05-04T14:50:59.182Z,708.75
2023-05-04T14:51:59.174Z,731.25
2023-05-04T14:52:59.165Z,765.00
2023-05-04T14:53:59.155Z,753.75
2023-05-04T14:54:59.142Z,742.50
2023-05-04T14:55:59.133Z,731.25
2023-05-04T14:56:59.250Z,697.50
2023-05-04T14:57:59.117Z,708.75
2023-05-04T14:58:59.305Z,714.36
2023-05-04T14:59:59.090Z,703.11
2023-05-04T15:00:59.135Z,703.11
2023-05-04T15:01:59.279Z,691.86
2023-05-04T15:02:59.153Z,708.75
2023-05-04T15:03:59.114Z,708.75
2023-05-04T15:04:59.048Z,708.75
2023-05-04T15:05:59.038Z,720.00
2023-05-04T15:06:59.024Z,731.25
2023-05-04T15:07:59.014Z,731.25
2023-05-04T15:08:59.000Z,731.25
2023-05-04T15:09:59.000Z,720.00
2023-05-04T15:10:58.987Z,720.00
2023-05-04T15:11:58.982Z,731.25
2023-05-04T15:12:59.058Z,736.86
2023-05-04T15:13:58.962Z,725.61
2023-05-04T15:14:58.946Z,725.61
2023-05-04T15:15:58.996Z,697.50
2023-05-04T15:16:58.922Z,725.61
2023-05-04T15:17:58.953Z,720.00
2023-05-04T15:18:58.905Z,703.11
2023-05-04T15:19:58.889Z,663.75
2023-05-04T15:20:58.879Z,624.36
2023-05-04T15:21:58.869Z,630.00
2023-05-04T15:22:59.061Z,646.86
2023-05-04T15:23:58.854Z,635.61
2023-05-04T15:24:58.844Z,607.50
2023-05-04T15:25:58.828Z,601.86
2023-05-04T15:26:58.821Z,601.86
2023-05-04T15:27:58.810Z,585.00
2023-05-04T15:28:58.814Z,579.36
2023-05-04T15:29:58.812Z,562.50
2023-05-04T15:30:58.785Z,545.61
2023-05-04T15:31:58.807Z,545.61
2023-05-04T15:32:58.793Z,523.11
2023-05-04T15:33:58.749Z,523.11
2023-05-04T15:35:05.366Z,545.61
2023-05-04T15:35:59.760Z,489.36
2023-05-04T15:36:58.720Z,534.36
2023-05-04T15:37:58.712Z,523.11
2023-05-04T15:38:58.697Z,517.50
2023-05-04T15:40:00.400Z,506.25
2023-05-04T15:40:58.676Z,489.36
2023-05-04T15:41:58.681Z,495.00
2023-05-04T15:42:58.688Z,495.00
2023-05-04T15:43:58.659Z,478.11
2023-05-04T15:44:58.686Z,483.75
2023-05-04T15:45:58.627Z,483.75
2023-05-04T15:46:58.681Z,483.75
2023-05-04T15:47:58.674Z,483.75
2023-05-04T15:48:58.596Z,483.75
2023-05-04T15:49:58.592Z,461.25
2023-05-04T15:50:58.596Z,438.75
2023-05-04T15:51:58.567Z,461.25
2023-05-04T15:52:58.558Z,455.61
2023-05-04T15:53:58.545Z,455.61
2023-05-04T15:55:00.695Z,450.00
2023-05-04T15:55:58.527Z,444.36
2023-05-04T15:56:58.514Z,444.36
2023-05-04T15:57:58.514Z,444.36
2023-05-04T15:58:58.490Z,433.11
2023-05-04T15:59:58.485Z,427.50
2023-05-04T16:00:58.550Z,427.50
2023-05-04T16:01:58.465Z,444.36
2023-05-04T16:02:58.500Z,444.36
2023-05-04T16:03:58.472Z,444.36
2023-05-04T16:04:58.437Z,472.50
2023-05-04T16:05:58.423Z,472.50
2023-05-04T16:06:58.411Z,472.50
2023-05-04T16:07:58.414Z,478.11
2023-05-04T16:08:58.393Z,478.11
2023-05-04T16:09:58.386Z,483.75
2023-05-04T16:10:58.369Z,489.36
2023-05-04T16:11:58.361Z,483.75
2023-05-04T16:12:58.414Z,500.61
2023-05-04T16:13:58.344Z,506.25
2023-05-04T16:14:58.337Z,506.25
2023-05-04T16:15:58.336Z,500.61
2023-05-04T16:16:58.452Z,495.00
2023-05-04T16:17:58.411Z,495.00
2023-05-04T16:18:58.293Z,495.00
2023-05-04T16:19:58.281Z,500.61
2023-05-04T16:20:58.279Z,495.00
2023-05-04T16:21:58.263Z,500.61
2023-05-04T16:22:58.288Z,523.11
2023-05-04T16:23:58.242Z,517.50
2023-05-04T16:24:58.431Z,500.61
2023-05-04T16:25:58.231Z,500.61
2023-05-04T16:26:58.210Z,500.61
2023-05-04T16:27:58.222Z,500.61
2023-05-04T16:28:58.192Z,495.00
2023-05-04T16:29:58.182Z,483.75
2023-05-04T16:30:58.242Z,483.75
2023-05-04T16:31:58.165Z,489.36
2023-05-04T16:32:58.186Z,489.36
2023-05-04T16:33:58.143Z,466.86
2023-05-04T16:34:58.168Z,455.61
2023-05-04T16:35:58.123Z,472.50
2023-05-04T16:36:58.115Z,472.50
2023-05-04T16:37:58.099Z,461.25
2023-05-04T16:38:58.093Z,450.00
2023-05-04T16:39:58.081Z,444.36
2023-05-04T16:40:58.072Z,421.86
2023-05-04T16:41:58.068Z,421.86
2023-05-04T16:42:58.052Z,427.50
2023-05-04T16:43:58.043Z,416.25
2023-05-04T16:44:58.038Z,405.00
2023-05-04T16:45:58.115Z,416.25
2023-05-04T16:46:58.020Z,410.61
2023-05-04T16:47:58.067Z,410.61
2023-05-04T16:48:58.018Z,410.61
2023-05-04T16:49:57.984Z,405.00
2023-05-04T16:50:57.970Z,410.61
2023-05-04T16:51:57.970Z,410.61
2023-05-04T16:52:57.952Z,410.61
2023-05-04T16:53:57.967Z,405.00
2023-05-04T16:54:57.928Z,399.36
2023-05-04T16:55:57.923Z,388.11
2023-05-04T16:56:57.911Z,382.50
2023-05-04T16:57:57.914Z,376.86
2023-05-04T16:58:57.888Z,365.61
2023-05-04T16:59:57.884Z,348.75
2023-05-04T17:00:57.870Z,343.11
2023-05-04T17:01:57.904Z,343.11
2023-05-04T17:02:58.093Z,343.11
2023-05-04T17:03:57.879Z,343.11
2023-05-04T17:04:57.851Z,348.75
2023-05-04T17:05:57.818Z,348.75
2023-05-04T17:06:57.805Z,348.75
2023-05-04T17:07:57.800Z,343.11
2023-05-04T17:08:57.796Z,348.75
2023-05-04T17:09:57.799Z,348.75
2023-05-04T17:10:57.777Z,348.75
2023-05-04T17:11:57.824Z,337.50
2023-05-04T17:12:58.198Z,337.50
2023-05-04T17:13:57.739Z,320.61
2023-05-04T17:14:57.725Z,315.00
2023-05-04T17:15:57.736Z,320.61
2023-05-04T17:16:57.705Z,315.00
2023-05-04T17:17:57.750Z,309.36
2023-05-04T17:18:57.690Z,298.11
2023-05-04T17:19:57.691Z,292.50
2023-05-04T17:20:57.686Z,264.36
2023-05-04T17:21:57.653Z,253.11
2023-05-04T17:22:57.664Z,247.50
2023-05-04T17:23:57.631Z,241.86
2023-05-04T17:24:57.631Z,236.25
2023-05-04T17:25:57.608Z,230.61
2023-05-04T17:26:57.600Z,230.61
2023-05-04T17:27:57.595Z,225.00
2023-05-04T17:28:57.583Z,219.36
2023-05-04T17:29:57.577Z,219.36
2023-05-04T17:30:57.557Z,219.36
2023-05-04T17:31:57.587Z,225.00
2023-05-04T17:32:57.630Z,219.36
2023-05-04T17:33:57.531Z,208.11
2023-05-04T17:34:58.462Z,202.50
2023-05-04T17:35:57.503Z,202.50
2023-05-04T17:36:57.519Z,202.50
2023-05-04T17:37:59.057Z,196.86
2023-05-04T17:38:57.470Z,196.86
2023-05-04T17:39:57.501Z,196.86
2023-05-04T17:40:57.469Z,191.25
2023-05-04T17:41:57.443Z,191.25
2023-05-04T17:42:57.528Z,191.25
2023-05-04T17:43:57.423Z,191.25
2023-05-04T17:44:57.413Z,191.25
2023-05-04T17:45:57.431Z,191.25
2023-05-04T17:46:57.392Z,196.86
2023-05-04T17:47:57.439Z,191.25
2023-05-04T17:48:57.371Z,191.25
2023-05-04T17:49:57.359Z,185.61
2023-05-04T17:50:57.352Z,180.00
2023-05-04T17:51:57.338Z,185.61
2023-05-04T17:52:57.353Z,185.61
2023-05-04T17:53:57.327Z,174.36
2023-05-04T17:54:57.309Z,174.36
2023-05-04T17:55:57.308Z,168.75
2023-05-04T17:56:57.298Z,168.75
2023-05-04T17:57:57.279Z,163.11
2023-05-04T17:58:57.274Z,163.11
2023-05-04T17:59:57.255Z,163.11
2023-05-04T18:00:57.260Z,163.11
2023-05-04T18:01:57.256Z,157.50
2023-05-04T18:02:57.319Z,157.50
2023-05-04T18:03:57.262Z,157.50
2023-05-04T18:04:57.200Z,151.86
2023-05-04T18:05:57.194Z,151.86
2023-05-04T18:06:57.184Z,146.25
2023-05-04T18:07:57.178Z,146.25
2023-05-04T18:08:57.190Z,140.61
2023-05-04T18:09:57.149Z,140.61
2023-05-04T18:10:57.145Z,135.00
2023-05-04T18:11:57.126Z,135.00
2023-05-04T18:12:57.133Z,129.36
2023-05-04T18:13:57.118Z,129.36
2023-05-04T18:14:57.126Z,123.75
2023-05-04T18:15:57.107Z,123.75
2023-05-04T18:16:57.086Z,123.75
2023-05-04T18:17:57.118Z,118.12
2023-05-04T18:18:58.402Z,118.12
2023-05-04T18:19:57.044Z,112.50
2023-05-04T18:20:57.035Z,112.50
2023-05-04T18:21:57.031Z,112.50
2023-05-04T18:22:57.015Z,112.50
2023-05-04T18:23:57.012Z,112.50
2023-05-04T18:24:57.014Z,106.87
2023-05-04T18:25:57.003Z,101.25
2023-05-04T18:26:56.973Z,101.25
2023-05-04T18:27:56.968Z,95.62
2023-05-04T18:29:04.217Z,90.00
2023-05-04T18:29:57.968Z,84.37
2023-05-04T18:30:56.931Z,78.75
2023-05-04T18:31:56.945Z,73.12
2023-05-04T18:32:56.972Z,73.12
2023-05-04T18:33:56.901Z,73.12
2023-05-04T18:34:56.893Z,67.50
2023-05-04T18:35:56.879Z,67.50
2023-05-04T18:36:56.882Z,61.86
2023-05-04T18:37:56.860Z,61.86
2023-05-04T18:38:56.850Z,61.86
2023-05-04T18:39:56.835Z,56.25
2023-05-04T18:40:56.848Z,56.25
2023-05-04T18:41:56.817Z,50.61
2023-05-04T18:42:56.807Z,50.61
2023-05-04T18:43:56.795Z,45.00